createdAt,value
2022-12-14T00:01:27.174Z,90.80
2022-12-14T00:03:55.576Z,90.39
2022-12-14T00:06:26.299Z,91.16
2022-12-14T00:08:55.673Z,90.70
2022-12-14T00:11:23.492Z,91.43
2022-12-14T00:13:52.654Z,91.38
2022-12-14T00:16:21.053Z,92.09
2022-12-14T00:18:52.305Z,90.82
2022-12-14T00:21:20.562Z,91.63
2022-12-14T00:23:51.223Z,91.51
2022-12-14T00:26:20.960Z,91.56
2022-12-14T00:28:50.031Z,90.56
2022-12-14T00:31:17.754Z,89.89
2022-12-14T00:33:45.638Z,90.43
2022-12-14T00:36:14.963Z,90.31
2022-12-14T00:38:42.848Z,90.52
2022-12-14T00:41:12.331Z,90.34
2022-12-14T00:43:40.119Z,90.63
2022-12-14T00:46:07.845Z,91.30
2022-12-14T00:48:35.547Z,91.37
2022-12-14T00:51:03.414Z,91.42
2022-12-14T00:53:31.054Z,92.34
2022-12-14T00:55:58.524Z,91.27
2022-12-14T00:58:27.843Z,91.81
2022-12-14T01:01:02.620Z,91.25
2022-12-14T01:03:30.721Z,92.06
2022-12-14T01:05:59.159Z,91.87
2022-12-14T01:08:26.922Z,91.38
2022-12-14T01:10:54.401Z,91.93
2022-12-14T01:13:21.898Z,91.59
2022-12-14T01:15:50.753Z,92.28
2022-12-14T01:18:18.844Z,90.82
2022-12-14T01:20:46.282Z,90.89
2022-12-14T01:23:13.704Z,90.80
2022-12-14T01:25:41.156Z,91.08
2022-12-14T01:28:08.600Z,91.46
2022-12-14T01:30:36.093Z,90.28
2022-12-14T01:33:04.950Z,91.39
2022-12-14T01:35:34.525Z,91.28
2022-12-14T01:38:02.048Z,91.59
2022-12-14T01:40:29.509Z,91.28
2022-12-14T01:42:56.967Z,91.25
2022-12-14T01:45:24.687Z,91.89
2022-12-14T01:47:54.403Z,92.72
2022-12-14T01:50:27.652Z,92.71
2022-12-14T01:52:58.053Z,91.76
2022-12-14T01:55:27.949Z,91.03
2022-12-14T01:57:59.259Z,91.05
2022-12-14T02:00:26.718Z,90.91
2022-12-14T02:02:57.808Z,90.91
2022-12-14T02:05:28.662Z,90.43
2022-12-14T02:07:56.594Z,90.51
2022-12-14T02:10:26.352Z,90.51
2022-12-14T02:12:58.355Z,89.56
2022-12-14T02:15:26.065Z,89.17
2022-12-14T02:17:53.773Z,88.56
2022-12-14T02:20:22.098Z,90.08
2022-12-14T02:23:30.794Z,90.03
2022-12-14T02:26:48.732Z,89.62
2022-12-14T02:29:36.803Z,88.86
2022-12-14T02:32:42.172Z,89.40
2022-12-14T02:35:14.561Z,89.11
2022-12-14T02:37:47.219Z,88.72
2022-12-14T02:40:22.769Z,89.00
2022-12-14T02:42:57.822Z,88.79
2022-12-14T02:45:33.757Z,87.76
2022-12-14T02:48:02.754Z,88.10
2022-12-14T02:50:34.503Z,88.11
2022-12-14T02:53:05.263Z,87.64
2022-12-14T02:55:35.879Z,87.88
2022-12-14T02:58:05.723Z,87.09
2022-12-14T03:00:36.157Z,88.23
2022-12-14T03:03:05.610Z,87.79
2022-12-14T03:05:33.869Z,87.38
2022-12-14T03:08:03.907Z,87.85
2022-12-14T03:10:37.575Z,87.55
2022-12-14T03:13:10.470Z,87.92
2022-12-14T03:15:41.379Z,89.81
2022-12-14T03:18:09.321Z,91.11
2022-12-14T03:20:38.376Z,91.34
2022-12-14T03:23:08.711Z,92.03
2022-12-14T03:25:42.421Z,91.07
2022-12-14T03:28:13.031Z,89.77
2022-12-14T03:31:00.018Z,89.68
2022-12-14T03:33:29.298Z,91.68
2022-12-14T03:35:59.397Z,91.13
2022-12-14T03:38:32.459Z,91.96
2022-12-14T03:41:05.211Z,92.24
2022-12-14T03:43:37.145Z,92.50
2022-12-14T03:46:09.324Z,91.56
2022-12-14T03:48:40.790Z,90.37
2022-12-14T03:51:14.572Z,89.72
2022-12-14T03:53:47.703Z,89.67
2022-12-14T03:56:18.823Z,88.67
2022-12-14T03:58:57.027Z,88.41
2022-12-14T04:01:34.263Z,88.81
2022-12-14T04:04:05.067Z,89.97
2022-12-14T04:06:39.243Z,90.48
2022-12-14T04:09:17.572Z,90.61
2022-12-14T04:12:08.042Z,90.44
2022-12-14T04:14:55.075Z,90.37
2022-12-14T04:17:45.043Z,90.07
2022-12-14T04:20:16.981Z,89.35
2022-12-14T04:22:47.907Z,89.89
2022-12-14T04:25:35.471Z,91.07
2022-12-14T04:28:06.204Z,90.23
2022-12-14T04:30:34.543Z,90.84
2022-12-14T04:33:26.668Z,90.74
2022-12-14T04:35:56.601Z,91.10
2022-12-14T04:38:30.200Z,90.29
2022-12-14T04:40:59.643Z,90.53
2022-12-14T04:43:29.764Z,89.94
2022-12-14T04:46:02.044Z,89.52
2022-12-14T04:48:36.676Z,89.76
2022-12-14T04:51:07.116Z,89.40
2022-12-14T04:53:35.655Z,88.59
2022-12-14T04:56:11.051Z,87.98
2022-12-14T04:58:39.511Z,87.93
2022-12-14T05:01:23.334Z,87.45
2022-12-14T05:04:00.085Z,87.26
2022-12-14T05:06:32.794Z,89.33
2022-12-14T05:09:09.875Z,90.07
2022-12-14T05:11:57.200Z,89.55
2022-12-14T05:14:32.870Z,88.99
2022-12-14T05:17:05.008Z,88.18
2022-12-14T05:19:37.173Z,88.96
2022-12-14T05:22:07.286Z,90.78
2022-12-14T05:24:34.871Z,89.84
2022-12-14T05:27:02.348Z,88.88
2022-12-14T05:29:29.869Z,88.24
2022-12-14T05:31:57.359Z,88.92
2022-12-14T05:34:24.983Z,88.20
2022-12-14T05:36:54.414Z,88.01
2022-12-14T05:39:21.880Z,88.13
2022-12-14T05:41:49.444Z,88.14
2022-12-14T05:44:16.884Z,88.06
2022-12-14T05:46:44.866Z,87.63
2022-12-14T05:49:12.720Z,88.59
2022-12-14T05:51:40.198Z,90.38
2022-12-14T05:54:09.028Z,91.30
2022-12-14T05:56:36.493Z,91.15
2022-12-14T05:59:04.054Z,92.38
2022-12-14T06:01:31.574Z,95.04
2022-12-14T06:04:00.157Z,96.98
2022-12-14T06:06:27.650Z,97.20
2022-12-14T06:08:55.091Z,97.39
2022-12-14T06:11:24.422Z,97.47
2022-12-14T06:13:52.211Z,97.43
2022-12-14T06:16:22.233Z,96.82
2022-12-14T06:18:51.803Z,96.78
2022-12-14T06:21:21.242Z,96.47
2022-12-14T06:23:49.181Z,96.40
2022-12-14T06:26:17.463Z,96.39
2022-12-14T06:28:46.583Z,95.98
2022-12-14T06:31:16.675Z,97.01
2022-12-14T06:33:44.836Z,96.33
2022-12-14T06:36:17.703Z,95.53
2022-12-14T06:38:45.201Z,95.05
2022-12-14T06:41:13.253Z,95.88
2022-12-14T06:43:40.885Z,95.78
2022-12-14T06:46:15.161Z,95.61
2022-12-14T06:48:43.800Z,96.00
2022-12-14T06:51:11.429Z,96.12
2022-12-14T06:53:39.092Z,95.61
2022-12-14T06:56:08.313Z,95.06
2022-12-14T06:58:35.820Z,95.25
2022-12-14T07:01:04.194Z,94.71
2022-12-14T07:03:33.164Z,93.99
2022-12-14T07:06:01.584Z,94.59
2022-12-14T07:08:30.072Z,94.10
2022-12-14T07:11:02.142Z,94.21
2022-12-14T07:13:30.518Z,94.41
2022-12-14T07:15:59.851Z,94.78
2022-12-14T07:18:27.567Z,94.42
2022-12-14T07:20:57.833Z,95.46
2022-12-14T07:23:28.008Z,94.96
2022-12-14T07:26:01.957Z,94.47
2022-12-14T07:28:30.202Z,94.82
2022-12-14T07:30:58.460Z,95.27
2022-12-14T07:33:27.286Z,95.36
2022-12-14T07:36:03.971Z,94.52
2022-12-14T07:38:31.926Z,95.01
2022-12-14T07:41:06.201Z,94.93
2022-12-14T07:43:33.912Z,94.92
2022-12-14T07:46:02.698Z,95.38
2022-12-14T07:48:30.540Z,95.01
2022-12-14T07:51:04.034Z,95.02
2022-12-14T07:53:31.717Z,94.87
2022-12-14T07:56:03.118Z,94.48
2022-12-14T07:58:30.553Z,94.07
2022-12-14T08:01:08.805Z,92.99
2022-12-14T08:03:36.905Z,93.12
2022-12-14T08:06:07.313Z,93.51
2022-12-14T08:08:35.383Z,93.43
2022-12-14T08:11:03.525Z,93.31
2022-12-14T08:13:32.009Z,92.88
2022-12-14T08:16:03.257Z,93.23
2022-12-14T08:18:31.048Z,92.88
2022-12-14T08:20:58.557Z,94.02
2022-12-14T08:23:27.922Z,93.45
2022-12-14T08:25:55.804Z,93.45
2022-12-14T08:28:27.168Z,93.72
2022-12-14T08:30:54.689Z,93.52
2022-12-14T08:33:22.438Z,92.88
2022-12-14T08:35:50.151Z,93.01
2022-12-14T08:38:18.392Z,93.55
2022-12-14T08:40:47.238Z,92.68
2022-12-14T08:43:14.675Z,92.27
2022-12-14T08:45:42.181Z,92.79
2022-12-14T08:48:09.743Z,92.05
2022-12-14T08:50:37.239Z,92.64
2022-12-14T08:53:04.693Z,91.35
2022-12-14T08:55:38.277Z,90.86
2022-12-14T08:58:07.693Z,90.55
2022-12-14T09:00:35.239Z,91.52
2022-12-14T09:03:03.864Z,90.79
2022-12-14T09:05:31.434Z,92.04
2022-12-14T09:07:58.979Z,91.85
2022-12-14T09:10:26.441Z,91.07
2022-12-14T09:12:53.956Z,90.76
2022-12-14T09:15:22.901Z,90.90
2022-12-14T09:17:50.825Z,89.89
2022-12-14T09:20:18.959Z,90.21
2022-12-14T09:22:46.414Z,90.81
2022-12-14T09:25:13.887Z,90.26
2022-12-14T09:27:41.312Z,90.07
2022-12-14T09:30:09.735Z,90.94
2022-12-14T09:32:40.026Z,90.52
2022-12-14T09:35:08.311Z,89.73
2022-12-14T09:37:35.862Z,90.07
2022-12-14T09:40:03.352Z,89.56
2022-12-14T09:42:42.817Z,89.18
2022-12-14T09:45:17.257Z,89.56
2022-12-14T09:47:51.919Z,87.71
2022-12-14T09:50:21.891Z,88.25
2022-12-14T09:52:52.019Z,88.32
2022-12-14T09:55:21.709Z,88.38
2022-12-14T09:57:51.373Z,88.54
2022-12-14T10:00:20.528Z,87.50
2022-12-14T10:03:06.093Z,87.34
2022-12-14T10:05:48.756Z,88.21
2022-12-14T10:08:21.753Z,87.09
2022-12-14T10:10:56.991Z,88.15
2022-12-14T10:13:34.285Z,87.92
2022-12-14T10:16:11.756Z,86.71
2022-12-14T10:19:00.470Z,87.18
2022-12-14T10:21:39.074Z,87.61
2022-12-14T10:24:07.433Z,86.39
2022-12-14T10:26:38.352Z,86.40
2022-12-14T10:29:12.047Z,87.05
2022-12-14T10:31:42.242Z,87.45
2022-12-14T10:34:18.711Z,87.50
2022-12-14T10:36:53.839Z,89.05
2022-12-14T10:39:34.575Z,89.02
2022-12-14T10:42:05.525Z,88.41
2022-12-14T10:44:39.011Z,89.33
2022-12-14T10:47:15.244Z,90.20
2022-12-14T10:49:49.805Z,89.01
2022-12-14T10:52:20.928Z,89.21
2022-12-14T10:54:50.788Z,88.92
2022-12-14T10:57:19.086Z,88.16
2022-12-14T11:00:03.319Z,88.62
2022-12-14T11:02:36.423Z,88.60
2022-12-14T11:05:16.711Z,88.21
2022-12-14T11:07:45.699Z,87.64
2022-12-14T11:10:17.893Z,87.50
2022-12-14T11:12:58.256Z,87.24
2022-12-14T11:15:29.179Z,87.69
2022-12-14T11:18:02.708Z,85.54
2022-12-14T11:20:32.368Z,85.42
2022-12-14T11:23:07.633Z,86.74
2022-12-14T11:25:38.157Z,85.24
2022-12-14T11:28:16.856Z,85.84
2022-12-14T11:30:53.711Z,85.58
2022-12-14T11:33:21.269Z,86.36
2022-12-14T11:35:52.355Z,86.15
2022-12-14T11:38:20.064Z,86.12
2022-12-14T11:40:48.255Z,84.72
2022-12-14T11:43:25.139Z,83.26
2022-12-14T11:45:52.833Z,83.71
2022-12-14T11:48:22.065Z,83.83
2022-12-14T11:50:53.052Z,83.02
2022-12-14T11:53:22.339Z,82.71
2022-12-14T11:55:53.640Z,82.66
2022-12-14T11:58:23.612Z,82.97
2022-12-14T12:00:52.682Z,83.53
2022-12-14T12:03:24.536Z,82.57
2022-12-14T12:05:54.594Z,80.65
2022-12-14T12:08:24.821Z,81.19
2022-12-14T12:10:54.621Z,79.78
2022-12-14T12:13:25.399Z,79.97
2022-12-14T12:15:55.424Z,77.63
2022-12-14T12:18:26.852Z,77.06
2022-12-14T12:21:00.190Z,76.81
2022-12-14T12:23:32.665Z,76.35
2022-12-14T12:26:01.388Z,75.41
2022-12-14T12:28:31.284Z,75.92
2022-12-14T12:31:06.045Z,75.36
2022-12-14T12:33:42.320Z,75.39
2022-12-14T12:36:11.364Z,76.19
2022-12-14T12:38:50.409Z,76.72
2022-12-14T12:41:26.990Z,76.79
2022-12-14T12:43:56.805Z,76.69
2022-12-14T12:46:28.408Z,76.65
2022-12-14T12:49:00.985Z,76.38
2022-12-14T12:51:32.228Z,77.15
2022-12-14T12:54:02.544Z,75.75
2022-12-14T12:56:40.008Z,75.70
2022-12-14T12:59:07.916Z,75.74
2022-12-14T13:01:38.260Z,77.99
2022-12-14T13:04:10.177Z,77.93
2022-12-14T13:06:42.661Z,77.20
2022-12-14T13:09:17.443Z,77.15
2022-12-14T13:11:44.953Z,77.34
2022-12-14T13:14:19.117Z,77.83
2022-12-14T13:16:48.785Z,76.57
2022-12-14T13:22:25.863Z,76.70
2022-12-14T13:24:58.930Z,77.60
2022-12-14T13:27:41.981Z,76.11
2022-12-14T13:30:40.607Z,76.82
2022-12-14T13:33:20.122Z,77.59
2022-12-14T13:36:05.657Z,77.64
2022-12-14T13:38:49.124Z,76.37
2022-12-14T13:41:27.167Z,76.16
2022-12-14T13:44:14.092Z,76.67
2022-12-14T13:46:42.039Z,76.58
2022-12-14T13:49:18.657Z,77.01
2022-12-14T13:51:50.362Z,77.42
2022-12-14T13:54:22.777Z,78.58
2022-12-14T13:56:50.308Z,79.32
2022-12-14T13:59:27.788Z,79.72
2022-12-14T14:01:58.248Z,79.28
2022-12-14T14:04:27.159Z,80.70
2022-12-14T14:06:55.066Z,80.51
2022-12-14T14:09:51.876Z,81.75
2022-12-14T14:12:39.605Z,80.95
2022-12-14T14:15:27.416Z,79.47
2022-12-14T14:17:55.326Z,79.15
2022-12-14T14:20:38.797Z,80.39
2022-12-14T14:23:27.764Z,80.62
2022-12-14T14:26:13.468Z,81.33
2022-12-14T14:28:41.019Z,82.30
2022-12-14T14:31:08.622Z,81.82
2022-12-14T14:33:46.778Z,82.74
2022-12-14T14:36:22.002Z,82.66
2022-12-14T14:38:49.765Z,81.50
2022-12-14T14:41:23.799Z,82.54
2022-12-14T14:43:52.594Z,81.64
2022-12-14T14:46:33.655Z,84.32
2022-12-14T14:49:01.243Z,85.22
2022-12-14T14:51:30.721Z,84.36
2022-12-14T14:57:36.661Z,81.96
2022-12-14T15:00:06.675Z,83.31
2022-12-14T15:02:35.316Z,82.39
2022-12-14T15:05:40.992Z,84.50
2022-12-14T15:07:54.840Z,86.17
2022-12-14T15:10:27.857Z,85.79
2022-12-14T15:13:00.935Z,84.66
2022-12-14T15:15:34.718Z,84.50
2022-12-14T15:18:15.715Z,83.87
2022-12-14T15:20:54.264Z,85.69
2022-12-14T15:23:22.125Z,86.33
2022-12-14T15:25:56.943Z,86.85
2022-12-14T15:28:27.979Z,85.85
2022-12-14T15:30:57.797Z,85.95
2022-12-14T15:33:27.823Z,88.51
2022-12-14T15:36:03.200Z,91.16
2022-12-14T15:38:32.987Z,89.46
2022-12-14T15:41:02.572Z,90.01
2022-12-14T15:43:32.155Z,88.90
2022-12-14T15:46:04.563Z,88.37
2022-12-14T15:48:34.270Z,89.39
2022-12-14T15:51:03.950Z,88.15
2022-12-14T15:53:33.884Z,89.22
2022-12-14T15:56:08.230Z,88.52
2022-12-14T15:58:40.531Z,90.28
2022-12-14T16:01:13.029Z,91.65
2022-12-14T16:03:42.561Z,91.19
2022-12-14T16:06:10.660Z,91.63
2022-12-14T16:08:40.804Z,90.11
2022-12-14T16:11:14.046Z,91.20
2022-12-14T16:13:43.687Z,91.49
2022-12-14T16:16:12.602Z,92.09
2022-12-14T16:18:40.820Z,91.99
2022-12-14T16:21:10.588Z,91.10
2022-12-14T16:23:44.867Z,91.60
2022-12-14T16:26:23.400Z,90.50
2022-12-14T16:29:07.647Z,89.73
2022-12-14T16:31:35.233Z,89.64
2022-12-14T16:34:16.812Z,91.41
2022-12-14T16:36:56.284Z,90.92
2022-12-14T16:39:35.378Z,91.08
2022-12-14T16:42:04.908Z,91.90
2022-12-14T16:44:38.284Z,91.51
2022-12-14T16:47:28.526Z,90.17
2022-12-14T16:49:57.636Z,89.57
2022-12-14T16:52:28.140Z,88.97
2022-12-14T16:55:11.728Z,89.25
2022-12-14T16:57:40.187Z,89.53
2022-12-14T17:00:20.917Z,89.48
2022-12-14T17:02:55.128Z,91.03
2022-12-14T17:05:23.407Z,90.45
2022-12-14T17:07:51.080Z,90.61
2022-12-14T17:10:20.482Z,90.80
2022-12-14T17:12:49.028Z,90.90
2022-12-14T17:15:20.137Z,91.01
2022-12-14T17:17:49.548Z,91.53
2022-12-14T17:20:22.418Z,90.81
2022-12-14T17:22:50.695Z,90.79
2022-12-14T17:25:18.741Z,90.48
2022-12-14T17:27:46.617Z,90.41
2022-12-14T17:30:20.028Z,89.68
2022-12-14T17:32:48.360Z,90.50
2022-12-14T17:35:17.593Z,91.32
2022-12-14T17:37:45.119Z,92.92
2022-12-14T17:40:13.319Z,93.50
2022-12-14T17:42:41.841Z,93.73
2022-12-14T17:45:19.915Z,94.06
2022-12-14T17:47:47.385Z,94.86
2022-12-14T17:50:15.959Z,94.97
2022-12-14T17:52:44.110Z,94.92
2022-12-14T17:55:18.268Z,94.98
2022-12-14T17:57:45.819Z,95.15
2022-12-14T18:00:34.747Z,94.05
2022-12-14T18:03:04.843Z,94.23
2022-12-14T18:05:33.220Z,92.89
2022-12-14T18:08:00.717Z,93.58
2022-12-14T18:10:28.795Z,92.76
2022-12-14T18:12:56.478Z,93.61
2022-12-14T18:15:26.977Z,93.20
2022-12-14T18:17:54.628Z,94.03
2022-12-14T18:20:24.797Z,93.53
2022-12-14T18:22:52.735Z,93.71
2022-12-14T18:25:31.584Z,93.68
2022-12-14T18:28:00.044Z,92.72
2022-12-14T18:30:29.969Z,92.99
2022-12-14T18:33:00.910Z,92.67
2022-12-14T18:35:32.075Z,91.56
2022-12-14T18:37:59.599Z,92.85
2022-12-14T18:40:28.710Z,90.56
2022-12-14T18:42:56.240Z,90.94
2022-12-14T18:45:26.343Z,91.21
2022-12-14T18:47:55.000Z,91.16
2022-12-14T18:50:23.055Z,91.74
2022-12-14T18:52:52.082Z,93.15
2022-12-14T18:55:21.420Z,92.70
2022-12-14T18:57:51.027Z,92.90
2022-12-14T19:00:20.733Z,93.17
2022-12-14T19:02:49.851Z,92.47
2022-12-14T19:05:20.825Z,93.40
2022-12-14T19:07:51.668Z,92.73
2022-12-14T19:10:21.355Z,92.18
2022-12-14T19:12:49.436Z,91.09
2022-12-14T19:15:18.744Z,91.82
2022-12-14T19:17:46.711Z,93.59
2022-12-14T19:20:16.226Z,93.36
2022-12-14T19:22:44.053Z,92.45
2022-12-14T19:25:13.331Z,92.58
2022-12-14T19:30:28.455Z,93.39
2022-12-14T19:32:57.172Z,93.36
2022-12-14T19:35:25.248Z,94.46
2022-12-14T19:37:52.906Z,94.20
2022-12-14T19:40:21.782Z,94.18
2022-12-14T19:42:50.333Z,93.37
2022-12-14T19:45:18.040Z,93.20
2022-12-14T19:47:45.492Z,91.75
2022-12-14T19:50:14.566Z,90.99
2022-12-14T19:52:42.356Z,91.17
2022-12-14T19:55:11.006Z,90.86
2022-12-14T19:57:40.741Z,91.33
2022-12-14T20:00:09.992Z,91.46
2022-12-14T20:02:37.782Z,92.72
2022-12-14T20:05:06.336Z,92.74
2022-12-14T20:07:36.337Z,93.18
2022-12-14T20:10:08.281Z,93.73
2022-12-14T20:12:35.750Z,92.76
2022-12-14T20:15:05.078Z,91.96
2022-12-14T20:17:32.583Z,91.83
2022-12-14T20:20:00.130Z,90.99
2022-12-14T20:22:27.637Z,92.04
2022-12-14T20:24:55.140Z,92.18
2022-12-14T20:27:22.643Z,92.70
2022-12-14T20:29:50.204Z,93.56
2022-12-14T20:32:19.136Z,93.76
2022-12-14T20:34:46.822Z,94.10
2022-12-14T20:37:14.298Z,93.81
2022-12-14T20:39:41.791Z,94.87
2022-12-14T20:42:09.370Z,94.84
2022-12-14T20:44:36.804Z,95.43
2022-12-14T20:47:04.327Z,94.91
2022-12-14T20:49:33.223Z,95.46
2022-12-14T20:52:00.683Z,95.78
2022-12-14T20:54:29.259Z,96.41
2022-12-14T20:56:56.774Z,96.18
2022-12-14T20:59:24.476Z,95.51
2022-12-14T21:01:55.869Z,94.98
2022-12-14T21:04:24.093Z,95.60
2022-12-14T21:06:52.982Z,94.89
2022-12-14T21:09:20.421Z,95.33
2022-12-14T21:12:07.412Z,94.33
2022-12-14T21:14:36.807Z,94.01
2022-12-14T21:17:05.327Z,95.22
2022-12-14T21:19:35.329Z,94.86
2022-12-14T21:22:04.792Z,94.16
2022-12-14T21:27:21.717Z,92.25
2022-12-14T21:29:49.709Z,92.07
2022-12-14T21:32:18.213Z,91.92
2022-12-14T21:34:46.280Z,92.51
2022-12-14T21:37:15.475Z,91.38
2022-12-14T21:39:46.325Z,91.17
2022-12-14T21:42:20.410Z,90.78
2022-12-14T21:44:49.651Z,91.97
2022-12-14T21:47:18.676Z,91.23
2022-12-14T21:49:48.005Z,91.87
2022-12-14T21:52:18.316Z,93.22
2022-12-14T21:54:46.072Z,93.66
2022-12-14T21:57:32.447Z,94.32
2022-12-14T22:00:00.137Z,95.10
2022-12-14T22:02:28.138Z,96.39
2022-12-14T22:04:56.801Z,95.49
2022-12-14T22:07:31.373Z,95.02
2022-12-14T22:09:58.980Z,94.82
2022-12-14T22:12:26.722Z,94.28
2022-12-14T22:14:54.229Z,93.40
2022-12-14T22:17:21.877Z,92.99
2022-12-14T22:19:50.690Z,92.17
2022-12-14T22:22:18.490Z,93.22
2022-12-14T22:24:49.323Z,93.35
2022-12-14T22:27:17.029Z,92.60
2022-12-14T22:29:44.469Z,93.26
2022-12-14T22:32:12.578Z,93.66
2022-12-14T22:34:40.117Z,94.53
2022-12-14T22:37:07.676Z,94.61
2022-12-14T22:39:35.888Z,93.56
2022-12-14T22:42:04.744Z,93.50
2022-12-14T22:44:32.358Z,93.04
2022-12-14T22:46:59.853Z,93.01
2022-12-14T22:49:27.313Z,92.42
2022-12-14T22:51:54.742Z,93.10
2022-12-14T22:54:24.288Z,93.01
2022-12-14T22:56:55.371Z,93.43
2022-12-14T22:59:26.724Z,94.30
2022-12-14T23:01:54.472Z,93.61
2022-12-14T23:04:22.026Z,93.50
2022-12-14T23:06:49.543Z,93.47
2022-12-14T23:09:34.676Z,93.29
2022-12-14T23:12:21.934Z,92.93
2022-12-14T23:15:08.792Z,94.06
2022-12-14T23:17:54.022Z,94.26
2022-12-14T23:20:39.134Z,94.84
2022-12-14T23:23:24.516Z,95.38
2022-12-14T23:26:09.417Z,95.07
2022-12-14T23:28:54.640Z,95.27
2022-12-14T23:31:41.002Z,94.25
2022-12-14T23:34:25.965Z,94.98
2022-12-14T23:37:13.829Z,94.94
2022-12-14T23:40:03.227Z,94.26
2022-12-14T23:42:47.949Z,94.75
2022-12-14T23:45:33.420Z,94.78
2022-12-14T23:48:19.651Z,95.32
2022-12-14T23:51:04.567Z,95.74
2022-12-14T23:53:49.973Z,95.12
2022-12-14T23:56:35.320Z,93.33
2022-12-14T23:59:22.690Z,92.87
